sensor_id;sensor_type;location;lat;lon;timestamp;pressure;altitude;pressure_sealevel;temperature;humidity
30636;BME280;17400;52.392;9.750;2023-06-14T00:02:11;101081.25;;;20.14;43.98
30636;BME280;17400;52.392;9.750;2023-06-14T00:04:40;101084.81;;;20.14;44.06
30636;BME280;17400;52.392;9.750;2023-06-14T00:07:10;101085.19;;;20.01;44.46
30636;BME280;17400;52.392;9.750;2023-06-14T00:09:40;101088.19;;;20.00;44.50
30636;BME280;17400;52.392;9.750;2023-06-14T00:12:09;101084.19;;;19.90;44.79
30636;BME280;17400;52.392;9.750;2023-06-14T00:14:37;101092.09;;;19.87;44.90
30636;BME280;17400;52.392;9.750;2023-06-14T00:17:05;101090.03;;;19.94;44.78
30636;BME280;17400;52.392;9.750;2023-06-14T00:19:35;101093.44;;;20.01;44.67
30636;BME280;17400;52.392;9.750;2023-06-14T00:22:04;101089.34;;;19.87;44.64
30636;BME280;17400;52.392;9.750;2023-06-14T00:24:33;101089.59;;;19.85;45.17
30636;BME280;17400;52.392;9.750;2023-06-14T00:27:01;101094.59;;;19.88;44.86
30636;BME280;17400;52.392;9.750;2023-06-14T00:29:29;101104.94;;;19.81;45.46
30636;BME280;17400;52.392;9.750;2023-06-14T00:31:57;101098.38;;;19.82;45.00
30636;BME280;17400;52.392;9.750;2023-06-14T00:34:25;101093.44;;;19.84;45.40
30636;BME280;17400;52.392;9.750;2023-06-14T00:36:52;101090.50;;;19.91;44.95
30636;BME280;17400;52.392;9.750;2023-06-14T00:39:20;101103.00;;;19.81;45.37
30636;BME280;17400;52.392;9.750;2023-06-14T00:41:49;101108.63;;;19.58;46.63
30636;BME280;17400;52.392;9.750;2023-06-14T00:44:17;101103.19;;;19.46;46.77
30636;BME280;17400;52.392;9.750;2023-06-14T00:46:47;101104.50;;;19.43;46.81
30636;BME280;17400;52.392;9.750;2023-06-14T00:49:15;101105.56;;;19.54;45.87
30636;BME280;17400;52.392;9.750;2023-06-14T00:51:48;101098.22;;;19.60;45.84
30636;BME280;17400;52.392;9.750;2023-06-14T00:54:15;101099.63;;;19.45;46.99
30636;BME280;17400;52.392;9.750;2023-06-14T00:56:44;101100.63;;;19.56;46.05
30636;BME280;17400;52.392;9.750;2023-06-14T00:59:14;101104.72;;;19.25;47.58
30636;BME280;17400;52.392;9.750;2023-06-14T01:01:42;101109.50;;;19.29;47.71
30636;BME280;17400;52.392;9.750;2023-06-14T01:04:13;101110.66;;;19.34;46.70
30636;BME280;17400;52.392;9.750;2023-06-14T01:06:49;101117.88;;;19.23;48.22
30636;BME280;17400;52.392;9.750;2023-06-14T01:09:37;101109.19;;;19.43;47.58
30636;BME280;17400;52.392;9.750;2023-06-14T01:12:13;101108.53;;;19.53;46.71
30636;BME280;17400;52.392;9.750;2023-06-14T01:14:44;101118.84;;;19.45;47.78
30636;BME280;17400;52.392;9.750;2023-06-14T01:17:14;101112.84;;;19.48;47.41
30636;BME280;17400;52.392;9.750;2023-06-14T01:19:44;101112.69;;;19.38;47.96
30636;BME280;17400;52.392;9.750;2023-06-14T01:22:12;101107.91;;;19.34;48.24
30636;BME280;17400;52.392;9.750;2023-06-14T01:24:42;101109.94;;;19.38;47.91
30636;BME280;17400;52.392;9.750;2023-06-14T01:27:13;101107.50;;;19.42;47.44
30636;BME280;17400;52.392;9.750;2023-06-14T01:29:43;101111.84;;;19.38;48.21
30636;BME280;17400;52.392;9.750;2023-06-14T01:32:13;101117.19;;;19.15;49.25
30636;BME280;17400;52.392;9.750;2023-06-14T01:34:41;101115.84;;;19.18;48.97
30636;BME280;17400;52.392;9.750;2023-06-14T01:37:10;101120.28;;;19.19;48.92
30636;BME280;17400;52.392;9.750;2023-06-14T01:39:42;101110.56;;;19.28;49.67
30636;BME280;17400;52.392;9.750;2023-06-14T01:42:12;101117.56;;;19.36;48.85
30636;BME280;17400;52.392;9.750;2023-06-14T01:44:42;101116.91;;;19.29;48.74
30636;BME280;17400;52.392;9.750;2023-06-14T01:47:12;101117.56;;;19.36;49.81
30636;BME280;17400;52.392;9.750;2023-06-14T01:49:40;101114.69;;;19.43;48.87
30636;BME280;17400;52.392;9.750;2023-06-14T01:52:08;101118.84;;;19.45;48.58
30636;BME280;17400;52.392;9.750;2023-06-14T01:54:37;101118.19;;;19.38;48.87
30636;BME280;17400;52.392;9.750;2023-06-14T01:57:11;101114.00;;;19.36;48.03
30636;BME280;17400;52.392;9.750;2023-06-14T01:59:39;101113.50;;;19.39;48.46
30636;BME280;17400;52.392;9.750;2023-06-14T02:02:07;101110.41;;;19.35;49.13
30636;BME280;17400;52.392;9.750;2023-06-14T02:04:35;101120.03;;;19.21;49.03
30636;BME280;17400;52.392;9.750;2023-06-14T02:07:04;101122.13;;;19.02;50.62
30636;BME280;17400;52.392;9.750;2023-06-14T02:09:32;101119.41;;;18.90;51.28
30636;BME280;17400;52.392;9.750;2023-06-14T02:12:00;101125.00;;;18.95;50.41
30636;BME280;17400;52.392;9.750;2023-06-14T02:14:30;101121.22;;;18.72;51.81
30636;BME280;17400;52.392;9.750;2023-06-14T02:16:59;101121.56;;;18.76;51.97
30636;BME280;17400;52.392;9.750;2023-06-14T02:19:27;101126.59;;;18.91;51.78
30636;BME280;17400;52.392;9.750;2023-06-14T02:21:56;101123.59;;;18.92;51.79
30636;BME280;17400;52.392;9.750;2023-06-14T02:24:24;101125.38;;;18.98;51.85
30636;BME280;17400;52.392;9.750;2023-06-14T02:26:52;101126.88;;;19.06;50.36
30636;BME280;17400;52.392;9.750;2023-06-14T02:29:22;101128.69;;;19.01;51.19
30636;BME280;17400;52.392;9.750;2023-06-14T02:31:52;101131.31;;;18.84;51.54
30636;BME280;17400;52.392;9.750;2023-06-14T02:34:20;101135.88;;;18.78;52.77
30636;BME280;17400;52.392;9.750;2023-06-14T02:36:49;101132.78;;;18.74;52.60
30636;BME280;17400;52.392;9.750;2023-06-14T02:39:17;101139.81;;;18.70;53.30
30636;BME280;17400;52.392;9.750;2023-06-14T02:41:47;101135.09;;;18.54;53.46
30636;BME280;17400;52.392;9.750;2023-06-14T02:44:17;101134.97;;;18.48;54.16
30636;BME280;17400;52.392;9.750;2023-06-14T02:46:46;101134.84;;;18.55;52.27
30636;BME280;17400;52.392;9.750;2023-06-14T02:49:15;101136.03;;;18.59;52.71
30636;BME280;17400;52.392;9.750;2023-06-14T02:51:43;101140.19;;;18.62;52.60
30636;BME280;17400;52.392;9.750;2023-06-14T02:54:12;101152.72;;;18.58;54.15
30636;BME280;17400;52.392;9.750;2023-06-14T02:56:43;101151.53;;;18.30;55.24
30636;BME280;17400;52.392;9.750;2023-06-14T02:59:12;101150.00;;;18.34;55.56
30636;BME280;17400;52.392;9.750;2023-06-14T03:01:41;101156.66;;;18.26;54.90
30636;BME280;17400;52.392;9.750;2023-06-14T03:04:09;101155.81;;;18.14;56.92
30636;BME280;17400;52.392;9.750;2023-06-14T03:06:39;101154.97;;;18.13;57.04
30636;BME280;17400;52.392;9.750;2023-06-14T03:09:07;101154.84;;;18.20;55.35
30636;BME280;17400;52.392;9.750;2023-06-14T03:11:36;101149.16;;;18.22;55.93
30636;BME280;17400;52.392;9.750;2023-06-14T03:14:04;101162.97;;;18.27;54.94
30636;BME280;17400;52.392;9.750;2023-06-14T03:16:33;101161.66;;;18.29;56.10
30636;BME280;17400;52.392;9.750;2023-06-14T03:19:01;101170.34;;;18.03;57.68
30636;BME280;17400;52.392;9.750;2023-06-14T03:21:30;101176.44;;;18.05;57.77
30636;BME280;17400;52.392;9.750;2023-06-14T03:24:01;101172.25;;;18.02;58.33
30636;BME280;17400;52.392;9.750;2023-06-14T03:26:31;101171.78;;;18.05;56.97
30636;BME280;17400;52.392;9.750;2023-06-14T03:29:00;101177.88;;;18.19;57.30
30636;BME280;17400;52.392;9.750;2023-06-14T03:31:29;101179.06;;;18.23;57.04
30636;BME280;17400;52.392;9.750;2023-06-14T03:33:59;101187.53;;;18.22;57.18
30636;BME280;17400;52.392;9.750;2023-06-14T03:36:28;101184.19;;;18.20;57.33
30636;BME280;17400;52.392;9.750;2023-06-14T03:38:56;101189.88;;;18.06;58.11
30636;BME280;17400;52.392;9.750;2023-06-14T03:41:25;101192.63;;;18.06;57.57
30636;BME280;17400;52.392;9.750;2023-06-14T03:43:54;101187.84;;;18.13;57.51
30636;BME280;17400;52.392;9.750;2023-06-14T03:46:22;101190.84;;;18.12;57.75
30636;BME280;17400;52.392;9.750;2023-06-14T03:48:50;101183.47;;;18.12;57.82
30636;BME280;17400;52.392;9.750;2023-06-14T03:51:18;101181.31;;;18.14;57.21
30636;BME280;17400;52.392;9.750;2023-06-14T03:53:47;101187.75;;;18.20;56.88
30636;BME280;17400;52.392;9.750;2023-06-14T03:56:36;101193.47;;;18.19;57.61
30636;BME280;17400;52.392;9.750;2023-06-14T03:59:04;101192.97;;;17.98;59.47
30636;BME280;17400;52.392;9.750;2023-06-14T04:01:32;101197.84;;;18.08;58.39
30636;BME280;17400;52.392;9.750;2023-06-14T04:04:00;101198.97;;;17.88;60.79
30636;BME280;17400;52.392;9.750;2023-06-14T04:06:29;101197.84;;;17.96;59.67
30636;BME280;17400;52.392;9.750;2023-06-14T04:08:59;101199.13;;;17.63;62.68
30636;BME280;17400;52.392;9.750;2023-06-14T04:11:31;101201.88;;;17.63;62.81
30636;BME280;17400;52.392;9.750;2023-06-14T04:14:02;101205.59;;;17.80;60.70
30636;BME280;17400;52.392;9.750;2023-06-14T04:16:31;101211.66;;;17.71;62.90
30636;BME280;17400;52.392;9.750;2023-06-14T04:19:01;101214.78;;;17.74;62.79
30636;BME280;17400;52.392;9.750;2023-06-14T04:21:29;101207.16;;;17.76;62.79
30636;BME280;17400;52.392;9.750;2023-06-14T04:24:00;101210.75;;;17.77;61.74
30636;BME280;17400;52.392;9.750;2023-06-14T04:26:30;101209.97;;;17.70;63.06
30636;BME280;17400;52.392;9.750;2023-06-14T04:29:02;101213.69;;;17.75;63.24
30636;BME280;17400;52.392;9.750;2023-06-14T04:31:30;101217.91;;;17.90;62.65
30636;BME280;17400;52.392;9.750;2023-06-14T04:34:00;101213.47;;;18.07;60.52
30636;BME280;17400;52.392;9.750;2023-06-14T04:36:32;101211.31;;;18.09;60.85
30636;BME280;17400;52.392;9.750;2023-06-14T04:39:07;101218.94;;;18.07;61.64
30636;BME280;17400;52.392;9.750;2023-06-14T04:41:44;101218.84;;;18.14;60.51
30636;BME280;17400;52.392;9.750;2023-06-14T04:44:16;101234.63;;;18.00;60.61
30636;BME280;17400;52.392;9.750;2023-06-14T04:46:46;101225.50;;;18.06;62.10
30636;BME280;17400;52.392;9.750;2023-06-14T04:49:15;101234.06;;;17.98;61.60
30636;BME280;17400;52.392;9.750;2023-06-14T04:51:48;101234.75;;;17.93;62.71
30636;BME280;17400;52.392;9.750;2023-06-14T04:54:29;101238.25;;;18.01;62.62
30636;BME280;17400;52.392;9.750;2023-06-14T04:57:00;101246.00;;;17.55;64.65
30636;BME280;17400;52.392;9.750;2023-06-14T04:59:31;101236.06;;;17.72;62.55
30636;BME280;17400;52.392;9.750;2023-06-14T05:02:03;101244.44;;;17.77;63.59
30636;BME280;17400;52.392;9.750;2023-06-14T05:04:33;101239.16;;;17.94;61.96
30636;BME280;17400;52.392;9.750;2023-06-14T05:07:06;101242.41;;;17.85;62.51
30636;BME280;17400;52.392;9.750;2023-06-14T05:09:37;101235.19;;;17.90;62.82
30636;BME280;17400;52.392;9.750;2023-06-14T05:12:06;101237.59;;;17.68;64.18
30636;BME280;17400;52.392;9.750;2023-06-14T05:14:39;101246.63;;;17.69;63.42
30636;BME280;17400;52.392;9.750;2023-06-14T05:17:07;101251.38;;;17.61;65.22
30636;BME280;17400;52.392;9.750;2023-06-14T05:19:36;101254.22;;;17.55;64.78
30636;BME280;17400;52.392;9.750;2023-06-14T05:22:05;101259.13;;;17.64;64.99
30636;BME280;17400;52.392;9.750;2023-06-14T05:24:34;101257.38;;;17.70;64.95
30636;BME280;17400;52.392;9.750;2023-06-14T05:27:05;101258.31;;;17.64;65.49
30636;BME280;17400;52.392;9.750;2023-06-14T05:29:34;101261.91;;;17.76;65.11
30636;BME280;17400;52.392;9.750;2023-06-14T05:32:04;101262.25;;;17.68;65.80
30636;BME280;17400;52.392;9.750;2023-06-14T05:34:33;101262.75;;;17.46;66.78
30636;BME280;17400;52.392;9.750;2023-06-14T05:37:01;101265.28;;;17.78;64.52
30636;BME280;17400;52.392;9.750;2023-06-14T05:39:31;101263.03;;;17.87;64.01
30636;BME280;17400;52.392;9.750;2023-06-14T05:41:59;101261.13;;;18.06;62.12
30636;BME280;17400;52.392;9.750;2023-06-14T05:44:27;101265.91;;;18.23;61.27
30636;BME280;17400;52.392;9.750;2023-06-14T05:46:55;101268.44;;;18.36;60.90
30636;BME280;17400;52.392;9.750;2023-06-14T05:49:25;101271.50;;;17.67;66.22
30636;BME280;17400;52.392;9.750;2023-06-14T05:51:53;101263.22;;;17.74;66.25
30636;BME280;17400;52.392;9.750;2023-06-14T05:54:21;101263.88;;;17.88;64.96
30636;BME280;17400;52.392;9.750;2023-06-14T05:56:49;101264.47;;;17.90;66.09
30636;BME280;17400;52.392;9.750;2023-06-14T05:59:19;101270.16;;;18.07;64.42
30636;BME280;17400;52.392;9.750;2023-06-14T06:01:50;101270.47;;;18.29;62.76
30636;BME280;17400;52.392;9.750;2023-06-14T06:04:18;101267.97;;;18.39;63.28
30636;BME280;17400;52.392;9.750;2023-06-14T06:06:47;101276.47;;;18.50;62.12
30636;BME280;17400;52.392;9.750;2023-06-14T06:09:16;101276.31;;;18.33;62.94
30636;BME280;17400;52.392;9.750;2023-06-14T06:11:44;101268.69;;;17.92;65.18
30636;BME280;17400;52.392;9.750;2023-06-14T06:14:19;101277.28;;;17.77;66.50
30636;BME280;17400;52.392;9.750;2023-06-14T06:16:47;101274.69;;;17.82;67.41
30636;BME280;17400;52.392;9.750;2023-06-14T06:19:16;101272.19;;;17.81;66.46
30636;BME280;17400;52.392;9.750;2023-06-14T06:21:44;101278.41;;;18.19;64.78
30636;BME280;17400;52.392;9.750;2023-06-14T06:24:13;101277.25;;;18.26;64.45
30636;BME280;17400;52.392;9.750;2023-06-14T06:26:41;101280.50;;;18.35;64.14
30636;BME280;17400;52.392;9.750;2023-06-14T06:29:09;101280.28;;;18.48;62.59
30636;BME280;17400;52.392;9.750;2023-06-14T06:31:38;101277.28;;;18.62;62.64
30636;BME280;17400;52.392;9.750;2023-06-14T06:34:06;101280.84;;;18.51;62.90
30636;BME280;17400;52.392;9.750;2023-06-14T06:36:34;101288.28;;;18.74;62.25
30636;BME280;17400;52.392;9.750;2023-06-14T06:39:02;101287.88;;;18.46;62.96
30636;BME280;17400;52.392;9.750;2023-06-14T06:41:37;101293.00;;;18.31;64.17
30636;BME280;17400;52.392;9.750;2023-06-14T06:44:06;101289.19;;;18.56;62.69
30636;BME280;17400;52.392;9.750;2023-06-14T06:46:34;101291.94;;;18.56;63.16
30636;BME280;17400;52.392;9.750;2023-06-14T06:49:07;101293.63;;;18.80;61.59
30636;BME280;17400;52.392;9.750;2023-06-14T06:51:36;101293.44;;;18.94;60.67
30636;BME280;17400;52.392;9.750;2023-06-14T06:54:04;101294.75;;;18.91;60.73
30636;BME280;17400;52.392;9.750;2023-06-14T06:56:36;101304.41;;;19.06;60.50
30636;BME280;17400;52.392;9.750;2023-06-14T06:59:05;101301.78;;;19.11;59.92
30636;BME280;17400;52.392;9.750;2023-06-14T07:01:33;101314.63;;;19.22;58.82
30636;BME280;17400;52.392;9.750;2023-06-14T07:04:03;101311.19;;;19.27;58.57
30636;BME280;17400;52.392;9.750;2023-06-14T07:06:32;101303.66;;;19.22;57.66
30636;BME280;17400;52.392;9.750;2023-06-14T07:09:00;101308.78;;;18.83;59.33
30636;BME280;17400;52.392;9.750;2023-06-14T07:11:30;101307.94;;;18.82;59.33
30636;BME280;17400;52.392;9.750;2023-06-14T07:14:00;101305.97;;;18.90;58.99
30636;BME280;17400;52.392;9.750;2023-06-14T07:16:29;101304.41;;;18.94;59.26
30636;BME280;17400;52.392;9.750;2023-06-14T07:18:57;101309.31;;;18.92;58.06
30636;BME280;17400;52.392;9.750;2023-06-14T07:21:26;101316.44;;;19.05;56.85
30636;BME280;17400;52.392;9.750;2023-06-14T07:23:55;101315.63;;;19.04;56.68
30636;BME280;17400;52.392;9.750;2023-06-14T07:26:23;101311.44;;;18.90;57.52
30636;BME280;17400;52.392;9.750;2023-06-14T07:28:54;101318.38;;;18.92;57.97
30636;BME280;17400;52.392;9.750;2023-06-14T07:31:24;101315.63;;;19.04;56.67
30636;BME280;17400;52.392;9.750;2023-06-14T07:33:53;101310.13;;;19.04;56.48
30636;BME280;17400;52.392;9.750;2023-06-14T07:36:22;101312.75;;;18.99;56.72
30636;BME280;17400;52.392;9.750;2023-06-14T07:38:50;101313.94;;;19.15;55.65
30636;BME280;17400;52.392;9.750;2023-06-14T07:41:18;101323.72;;;19.23;54.49
30636;BME280;17400;52.392;9.750;2023-06-14T07:43:47;101312.63;;;19.29;54.14
30636;BME280;17400;52.392;9.750;2023-06-14T07:46:15;101316.03;;;19.48;53.93
30636;BME280;17400;52.392;9.750;2023-06-14T07:48:44;101311.94;;;19.63;53.28
30636;BME280;17400;52.392;9.750;2023-06-14T07:51:14;101319.31;;;19.74;52.80
30636;BME280;17400;52.392;9.750;2023-06-14T07:53:45;101318.72;;;19.72;52.45
30636;BME280;17400;52.392;9.750;2023-06-14T07:56:14;101320.22;;;19.51;53.25
30636;BME280;17400;52.392;9.750;2023-06-14T07:58:43;101317.47;;;19.51;51.88
30636;BME280;17400;52.392;9.750;2023-06-14T08:01:14;101318.41;;;19.57;53.41
30636;BME280;17400;52.392;9.750;2023-06-14T08:03:45;101312.41;;;19.72;52.27
30636;BME280;17400;52.392;9.750;2023-06-14T08:06:14;101300.91;;;19.87;52.26
30636;BME280;17400;52.392;9.750;2023-06-14T08:08:43;101307.25;;;19.87;50.84
30636;BME280;17400;52.392;9.750;2023-06-14T08:11:11;101317.88;;;19.84;50.83
30636;BME280;17400;52.392;9.750;2023-06-14T08:13:39;101320.41;;;19.61;51.15
30636;BME280;17400;52.392;9.750;2023-06-14T08:16:08;101321.00;;;19.75;51.23
30636;BME280;17400;52.392;9.750;2023-06-14T08:18:36;101313.47;;;19.83;51.53
30636;BME280;17400;52.392;9.750;2023-06-14T08:21:05;101316.38;;;20.05;51.15
30636;BME280;17400;52.392;9.750;2023-06-14T08:23:34;101312.25;;;20.19;50.96
30636;BME280;17400;52.392;9.750;2023-06-14T08:26:06;101308.28;;;19.98;50.41
30636;BME280;17400;52.392;9.750;2023-06-14T08:28:34;101304.06;;;20.07;50.01
30636;BME280;17400;52.392;9.750;2023-06-14T08:31:02;101309.25;;;19.92;50.20
30636;BME280;17400;52.392;9.750;2023-06-14T08:33:30;101309.25;;;19.92;50.44
30636;BME280;17400;52.392;9.750;2023-06-14T08:36:00;101317.00;;;19.95;49.99
30636;BME280;17400;52.392;9.750;2023-06-14T08:38:30;101318.13;;;20.11;50.57
30636;BME280;17400;52.392;9.750;2023-06-14T08:40:58;101308.84;;;20.00;50.38
30636;BME280;17400;52.392;9.750;2023-06-14T08:43:28;101308.31;;;20.15;50.28
30636;BME280;17400;52.392;9.750;2023-06-14T08:45:58;101310.13;;;20.09;50.23
30636;BME280;17400;52.392;9.750;2023-06-14T08:48:28;101301.97;;;20.14;49.50
30636;BME280;17400;52.392;9.750;2023-06-14T08:50:56;101304.47;;;20.16;49.12
30636;BME280;17400;52.392;9.750;2023-06-14T08:53:31;101304.31;;;20.23;50.19
30636;BME280;17400;52.392;9.750;2023-06-14T08:56:05;101303.66;;;20.33;48.62
30636;BME280;17400;52.392;9.750;2023-06-14T08:58:34;101293.50;;;20.33;48.66
30636;BME280;17400;52.392;9.750;2023-06-14T09:01:03;101303.59;;;20.44;48.26
30636;BME280;17400;52.392;9.750;2023-06-14T09:03:31;101303.50;;;20.39;47.72
30636;BME280;17400;52.392;9.750;2023-06-14T09:06:00;101306.00;;;20.41;48.71
30636;BME280;17400;52.392;9.750;2023-06-14T09:08:32;101305.84;;;20.47;48.42
30636;BME280;17400;52.392;9.750;2023-06-14T09:11:02;101313.84;;;20.49;48.49
30636;BME280;17400;52.392;9.750;2023-06-14T09:13:30;101304.00;;;20.53;48.34
30636;BME280;17400;52.392;9.750;2023-06-14T09:15:58;101311.00;;;20.61;48.28
30636;BME280;17400;52.392;9.750;2023-06-14T09:18:34;101313.75;;;20.61;47.46
30636;BME280;17400;52.392;9.750;2023-06-14T09:21:02;101312.03;;;20.72;47.07
30636;BME280;17400;52.392;9.750;2023-06-14T09:23:36;101313.06;;;20.83;46.29
30636;BME280;17400;52.392;9.750;2023-06-14T09:26:06;101306.41;;;20.78;45.70
30636;BME280;17400;52.392;9.750;2023-06-14T09:28:35;101309.88;;;20.91;45.90
30636;BME280;17400;52.392;9.750;2023-06-14T09:31:03;101316.03;;;20.98;45.97
30636;BME280;17400;52.392;9.750;2023-06-14T09:33:32;101314.38;;;20.97;45.15
30636;BME280;17400;52.392;9.750;2023-06-14T09:36:00;101313.88;;;21.00;44.95
30636;BME280;17400;52.392;9.750;2023-06-14T09:38:29;101312.28;;;20.87;45.42
30636;BME280;17400;52.392;9.750;2023-06-14T09:40:58;101321.03;;;21.01;44.79
30636;BME280;17400;52.392;9.750;2023-06-14T09:43:27;101317.34;;;21.12;45.14
30636;BME280;17400;52.392;9.750;2023-06-14T09:45:56;101312.50;;;21.20;45.14
30636;BME280;17400;52.392;9.750;2023-06-14T09:48:25;101312.56;;;21.25;45.43
30636;BME280;17400;52.392;9.750;2023-06-14T09:50:55;101322.63;;;21.36;45.23
30636;BME280;17400;52.392;9.750;2023-06-14T09:53:25;101313.09;;;21.44;44.88
30636;BME280;17400;52.392;9.750;2023-06-14T09:55:58;101307.69;;;21.32;43.80
30636;BME280;17400;52.392;9.750;2023-06-14T09:58:28;101306.94;;;21.37;44.69
30636;BME280;17400;52.392;9.750;2023-06-14T10:00:57;101310.06;;;21.45;44.82
30636;BME280;17400;52.392;9.750;2023-06-14T10:03:28;101296.34;;;21.28;44.85
30636;BME280;17400;52.392;9.750;2023-06-14T10:06:09;101299.75;;;21.36;45.44
30636;BME280;17400;52.392;9.750;2023-06-14T10:08:40;101298.22;;;21.45;45.38
30636;BME280;17400;52.392;9.750;2023-06-14T10:11:11;101298.31;;;21.50;45.01
30636;BME280;17400;52.392;9.750;2023-06-14T10:13:41;101292.53;;;21.52;45.56
30636;BME280;17400;52.392;9.750;2023-06-14T10:16:14;101300.69;;;21.63;45.00
30636;BME280;17400;52.392;9.750;2023-06-14T10:18:45;101292.75;;;21.67;44.61
30636;BME280;17400;52.392;9.750;2023-06-14T10:21:23;101288.31;;;21.66;44.56
30636;BME280;17400;52.392;9.750;2023-06-14T10:23:56;101277.66;;;21.75;44.71
30636;BME280;17400;52.392;9.750;2023-06-14T10:26:29;101290.41;;;21.81;45.21
30636;BME280;17400;52.392;9.750;2023-06-14T10:29:00;101286.25;;;21.78;44.79
30636;BME280;17400;52.392;9.750;2023-06-14T10:31:42;101273.81;;;21.76;45.24
30636;BME280;17400;52.392;9.750;2023-06-14T10:34:12;101279.13;;;21.83;44.70
30636;BME280;17400;52.392;9.750;2023-06-14T10:36:42;101289.59;;;21.80;45.20
30636;BME280;17400;52.392;9.750;2023-06-14T10:39:15;101268.97;;;21.83;44.87
30636;BME280;17400;52.392;9.750;2023-06-14T10:41:52;101283.88;;;21.87;45.13
30636;BME280;17400;52.392;9.750;2023-06-14T10:44:33;101280.84;;;21.89;44.87
30636;BME280;17400;52.392;9.750;2023-06-14T10:47:07;101282.38;;;22.02;45.07
30636;BME280;17400;52.392;9.750;2023-06-14T10:49:42;101273.41;;;22.17;45.00
30636;BME280;17400;52.392;9.750;2023-06-14T10:52:11;101281.91;;;22.10;43.76
30636;BME280;17400;52.392;9.750;2023-06-14T10:55:00;101271.63;;;22.05;44.54
30636;BME280;17400;52.392;9.750;2023-06-14T10:57:29;101271.09;;;22.03;44.38
30636;BME280;17400;52.392;9.750;2023-06-14T11:00:15;101280.97;;;21.99;44.49
30636;BME280;17400;52.392;9.750;2023-06-14T11:02:52;101276.06;;;22.06;44.18
30636;BME280;17400;52.392;9.750;2023-06-14T11:05:26;101270.69;;;22.22;44.43
30636;BME280;17400;52.392;9.750;2023-06-14T11:10:59;101276.69;;;22.13;43.90
30636;BME280;17400;52.392;9.750;2023-06-14T11:13:29;101273.34;;;22.11;44.08
30636;BME280;17400;52.392;9.750;2023-06-14T11:15:58;101267.94;;;22.22;43.38
30636;BME280;17400;52.392;9.750;2023-06-14T11:18:28;101275.47;;;22.32;43.29
30636;BME280;17400;52.392;9.750;2023-06-14T11:20:56;101262.63;;;22.42;43.35
30636;BME280;17400;52.392;9.750;2023-06-14T11:23:25;101263.78;;;22.46;43.60
30636;BME280;17400;52.392;9.750;2023-06-14T11:25:53;101272.34;;;22.50;42.90
30636;BME280;17400;52.392;9.750;2023-06-14T11:28:36;101263.78;;;22.46;43.48
30636;BME280;17400;52.392;9.750;2023-06-14T11:31:09;101264.34;;;22.49;43.54
30636;BME280;17400;52.392;9.750;2023-06-14T11:33:37;101257.44;;;22.51;42.71
30636;BME280;17400;52.392;9.750;2023-06-14T11:36:06;101250.53;;;22.49;42.76
30636;BME280;17400;52.392;9.750;2023-06-14T11:38:36;101249.50;;;22.55;43.15
30636;BME280;17400;52.392;9.750;2023-06-14T11:41:05;101252.78;;;22.57;43.43
30636;BME280;17400;52.392;9.750;2023-06-14T11:43:33;101255.91;;;22.66;43.20
30636;BME280;17400;52.392;9.750;2023-06-14T11:46:03;101246.47;;;22.56;43.29
30636;BME280;17400;52.392;9.750;2023-06-14T11:48:37;101241.72;;;22.46;42.95
30636;BME280;17400;52.392;9.750;2023-06-14T11:51:07;101248.81;;;22.37;42.99
30636;BME280;17400;52.392;9.750;2023-06-14T11:53:35;101246.69;;;22.50;43.14
30636;BME280;17400;52.392;9.750;2023-06-14T11:56:04;101250.22;;;22.45;43.25
30636;BME280;17400;52.392;9.750;2023-06-14T11:58:32;101252.16;;;22.44;43.89
30636;BME280;17400;52.392;9.750;2023-06-14T12:01:04;101249.09;;;22.41;43.42
30636;BME280;17400;52.392;9.750;2023-06-14T12:03:32;101234.53;;;22.45;43.68
30636;BME280;17400;52.392;9.750;2023-06-14T12:06:02;101241.53;;;22.63;43.94
30636;BME280;17400;52.392;9.750;2023-06-14T12:08:34;101236.97;;;22.85;43.17
30636;BME280;17400;52.392;9.750;2023-06-14T12:11:06;101239.63;;;23.12;43.30
30636;BME280;17400;52.392;9.750;2023-06-14T12:13:38;101234.06;;;23.07;42.95
30636;BME280;17400;52.392;9.750;2023-06-14T12:16:09;101231.28;;;23.75;41.87
30636;BME280;17400;52.392;9.750;2023-06-14T12:18:38;101215.88;;;24.47;41.15
30636;BME280;17400;52.392;9.750;2023-06-14T12:21:08;101219.13;;;24.90;39.89
30636;BME280;17400;52.392;9.750;2023-06-14T12:23:44;101226.28;;;25.01;39.35
30636;BME280;17400;52.392;9.750;2023-06-14T12:26:13;101221.75;;;25.31;38.81
30636;BME280;17400;52.392;9.750;2023-06-14T12:28:45;101220.09;;;25.35;37.92
30636;BME280;17400;52.392;9.750;2023-06-14T12:31:16;101210.59;;;25.47;37.68
30636;BME280;17400;52.392;9.750;2023-06-14T12:33:46;101219.25;;;25.35;38.15
30636;BME280;17400;52.392;9.750;2023-06-14T12:36:16;101211.63;;;25.61;38.25
30636;BME280;17400;52.392;9.750;2023-06-14T12:38:44;101217.13;;;25.66;38.23
30636;BME280;17400;52.392;9.750;2023-06-14T12:41:13;101218.09;;;25.46;38.69
30636;BME280;17400;52.392;9.750;2023-06-14T12:43:42;101213.91;;;24.73;39.13
30636;BME280;17400;52.392;9.750;2023-06-14T12:46:11;101215.59;;;24.69;39.64
30636;BME280;17400;52.392;9.750;2023-06-14T12:48:40;101218.09;;;24.65;39.77
30636;BME280;17400;52.392;9.750;2023-06-14T12:51:09;101216.94;;;24.61;39.90
30636;BME280;17400;52.392;9.750;2023-06-14T12:53:37;101209.19;;;24.58;39.58
30636;BME280;17400;52.392;9.750;2023-06-14T12:56:05;101216.69;;;24.57;38.98
30636;BME280;17400;52.392;9.750;2023-06-14T12:58:33;101206.47;;;24.48;39.02
30636;BME280;17400;52.392;9.750;2023-06-14T13:01:02;101206.16;;;24.65;39.02
30636;BME280;17400;52.392;9.750;2023-06-14T13:03:33;101201.66;;;24.89;38.92
30636;BME280;17400;52.392;9.750;2023-06-14T13:06:06;101191.91;;;25.07;38.03
30636;BME280;17400;52.392;9.750;2023-06-14T13:08:38;101193.34;;;25.00;37.40